Time;durP1;ratioP1;P1;durP2;ratioP2;P2;SDS_P1;SDS_P2;PMS_P1;PMS_P2;Temp;Humidity;BMP_temperature;BMP_pressure;BME280_temperature;BME280_humidity;BME280_pressure;Samples;Min_cycle;Max_cycle;Signal;HPM_P1;HPM_P2
2023/03/06 00:00:16;;;;;;;15.55;9.98;;;11.80;96.70;;;;;;5059890;28;20506;-76
2023/03/06 00:02:44;;;;;;;14.32;7.80;;;11.80;96.70;;;;;;5062885;28;20044;-76
2023/03/06 00:05:19;;;;;;;15.27;8.65;;;11.80;96.70;;;;;;5057383;28;20048;-75
2023/03/06 00:07:47;;;;;;;14.48;8.55;;;11.80;96.70;;;;;;5060137;28;20250;-76
2023/03/06 00:10:17;;;;;;;12.77;8.00;;;11.80;96.70;;;;;;5065575;28;21426;-76
2023/03/06 00:12:54;;;;;;;17.92;8.20;;;11.70;96.70;;;;;;5062412;28;20049;-76
2023/03/06 00:15:22;;;;;;;15.32;7.80;;;11.80;96.70;;;;;;5061965;28;20069;-76
2023/03/06 00:17:51;;;;;;;15.50;8.23;;;11.70;96.70;;;;;;5062016;28;20617;-76
2023/03/06 00:20:20;;;;;;;14.00;7.45;;;11.70;96.70;;;;;;5060120;28;20044;-76
2023/03/06 00:22:49;;;;;;;15.52;7.68;;;11.70;96.70;;;;;;5059943;28;20040;-76
2023/03/06 00:25:27;;;;;;;13.45;7.53;;;11.70;96.70;;;;;;5066180;28;20489;-76
2023/03/06 00:27:57;;;;;;;15.05;7.68;;;11.70;96.70;;;;;;5063314;28;20788;-76
2023/03/06 00:30:26;;;;;;;13.48;7.95;;;11.70;96.70;;;;;;5038799;28;20037;-75
2023/03/06 00:32:54;;;;;;;12.73;7.70;;;11.70;96.70;;;;;;5050226;28;20167;-76
2023/03/06 00:35:23;;;;;;;17.75;8.82;;;11.70;96.70;;;;;;5065445;28;20555;-76
2023/03/06 00:37:51;;;;;;;15.88;8.43;;;11.70;96.70;;;;;;5042327;28;20456;-75
2023/03/06 00:40:20;;;;;;;18.98;8.25;;;11.70;96.70;;;;;;5059903;28;20047;-75
2023/03/06 00:42:48;;;;;;;18.48;8.20;;;11.70;96.70;;;;;;5045204;28;20094;-75
2023/03/06 00:45:17;;;;;;;15.07;8.50;;;11.80;96.70;;;;;;5061859;28;20037;-75
2023/03/06 00:47:45;;;;;;;17.85;10.40;;;11.70;96.70;;;;;;5055830;28;20036;-75
2023/03/06 00:50:14;;;;;;;13.85;7.80;;;11.70;96.70;;;;;;5061679;28;20095;-75
2023/03/06 00:52:42;;;;;;;15.55;8.13;;;11.70;96.70;;;;;;5058449;28;20550;-74
2023/03/06 00:55:11;;;;;;;15.18;7.72;;;11.60;96.70;;;;;;5057330;28;20041;-75
2023/03/06 00:57:39;;;;;;;14.63;7.28;;;11.60;96.70;;;;;;5061828;28;20032;-74
2023/03/06 01:00:11;;;;;;;14.70;8.10;;;11.50;96.70;;;;;;5057372;28;20098;-75
2023/03/06 01:02:40;;;;;;;16.70;7.68;;;11.50;96.70;;;;;;5056466;28;20048;-74
2023/03/06 01:05:09;;;;;;;16.33;8.52;;;11.50;96.70;;;;;;5062352;28;20071;-75
2023/03/06 01:07:37;;;;;;;15.02;7.18;;;11.50;96.70;;;;;;5040728;28;20037;-74
2023/03/06 01:10:07;;;;;;;15.25;7.25;;;11.50;96.70;;;;;;5053252;28;20059;-75
2023/03/06 01:12:35;;;;;;;16.40;7.45;;;11.60;96.70;;;;;;5068871;28;20060;-75
2023/03/06 01:15:04;;;;;;;12.63;7.22;;;11.60;96.70;;;;;;5043981;28;20045;-75
2023/03/06 01:17:34;;;;;;;14.95;6.95;;;11.60;96.70;;;;;;5057548;28;20561;-75
2023/03/06 01:20:05;;;;;;;17.02;7.35;;;11.60;96.70;;;;;;5057789;28;20047;-76
2023/03/06 01:22:33;;;;;;;13.57;7.80;;;11.70;96.70;;;;;;5054200;28;20542;-74
2023/03/06 01:25:01;;;;;;;16.45;8.40;;;11.60;96.70;;;;;;5056734;28;20036;-75
2023/03/06 01:27:29;;;;;;;14.75;7.70;;;11.60;96.70;;;;;;5063112;28;20644;-74
2023/03/06 01:29:57;;;;;;;10.45;7.10;;;11.70;96.70;;;;;;5055159;28;20501;-75
2023/03/06 01:32:25;;;;;;;10.52;7.22;;;11.80;96.70;;;;;;5060345;28;20051;-75
2023/03/06 01:34:54;;;;;;;15.05;7.75;;;11.80;96.70;;;;;;5054736;28;20044;-75
2023/03/06 01:37:23;;;;;;;12.88;8.00;;;11.70;96.70;;;;;;5055233;28;20040;-75
2023/03/06 01:39:51;;;;;;;17.90;7.57;;;11.70;96.70;;;;;;5049539;28;20651;-74
2023/03/06 01:42:20;;;;;;;15.35;7.43;;;11.60;96.70;;;;;;5059494;28;20117;-75
2023/03/06 01:45:03;;;;;;;12.80;6.85;;;11.60;96.70;;;;;;5051011;28;20165;-74
2023/03/06 01:47:31;;;;;;;10.50;6.88;;;11.70;96.70;;;;;;5054131;28;20106;-75
2023/03/06 01:50:02;;;;;;;11.82;7.40;;;11.80;96.70;;;;;;5050858;28;20430;-75
2023/03/06 01:52:35;;;;;;;15.15;7.15;;;11.80;96.70;;;;;;5055031;28;20048;-75
2023/03/06 01:55:07;;;;;;;15.38;7.90;;;11.80;96.70;;;;;;5055834;28;20056;-75
2023/03/06 01:57:40;;;;;;;13.18;7.65;;;11.80;96.70;;;;;;5061874;28;20041;-75
2023/03/06 02:00:11;;;;;;;11.88;7.35;;;11.70;96.70;;;;;;5055104;28;20059;-75
2023/03/06 02:02:46;;;;;;;12.20;7.72;;;11.70;96.70;;;;;;5052146;28;20056;-75
2023/03/06 02:05:14;;;;;;;13.80;7.65;;;11.60;96.70;;;;;;5064398;28;20460;-75
2023/03/06 02:07:45;;;;;;;13.70;8.32;;;11.60;96.70;;;;;;5052967;28;20048;-75
2023/03/06 02:10:14;;;;;;;9.95;7.53;;;11.70;96.70;;;;;;5068790;28;20127;-75
2023/03/06 02:12:43;;;;;;;11.23;6.50;;;11.60;96.70;;;;;;5063968;28;20064;-75
2023/03/06 02:15:12;;;;;;;15.60;7.93;;;11.60;96.70;;;;;;5059091;28;20419;-75
2023/03/06 02:17:41;;;;;;;12.55;6.72;;;11.60;96.70;;;;;;5059448;28;20479;-75
2023/03/06 02:20:12;;;;;;;13.05;7.13;;;11.60;96.70;;;;;;5052831;28;20605;-75
2023/03/06 02:22:46;;;;;;;15.27;7.70;;;11.60;96.70;;;;;;5056056;28;20698;-75
2023/03/06 02:25:31;;;;;;;12.23;7.25;;;11.60;96.70;;;;;;5059054;28;20056;-75
2023/03/06 02:27:59;;;;;;;10.50;7.13;;;11.50;96.70;;;;;;5052454;28;20053;-75
2023/03/06 02:30:28;;;;;;;13.55;6.15;;;11.50;96.70;;;;;;5056616;28;20413;-75
2023/03/06 02:32:56;;;;;;;12.95;7.75;;;11.50;96.70;;;;;;5048477;28;20525;-75
2023/03/06 02:35:26;;;;;;;11.05;6.45;;;11.50;96.70;;;;;;5070318;28;20566;-74
2023/03/06 02:37:56;;;;;;;13.68;6.78;;;11.60;96.70;;;;;;5063853;28;20121;-75
2023/03/06 02:40:26;;;;;;;9.60;7.18;;;11.60;96.70;;;;;;5074622;28;20056;-75
2023/03/06 02:42:56;;;;;;;10.98;6.60;;;11.50;96.70;;;;;;5056441;28;20069;-76
2023/03/06 02:45:30;;;;;;;11.90;6.57;;;11.10;96.70;;;;;;5050700;28;20053;-75
2023/03/06 02:47:58;;;;;;;13.30;7.20;;;11.00;96.70;;;;;;5054033;28;20059;-75
2023/03/06 02:50:28;;;;;;;12.18;7.00;;;11.10;96.70;;;;;;5049229;28;20127;-75
2023/03/06 02:52:55;;;;;;;13.27;7.18;;;11.20;96.70;;;;;;5068542;28;20484;-76
2023/03/06 02:55:25;;;;;;;12.25;6.88;;;11.20;96.70;;;;;;5054939;28;20044;-75
2023/03/06 02:57:55;;;;;;;10.45;6.45;;;11.30;96.70;;;;;;5050556;28;20048;-75
2023/03/06 03:00:23;;;;;;;10.82;7.30;;;11.30;96.70;;;;;;5048641;28;20055;-75
2023/03/06 03:02:52;;;;;;;12.75;6.90;;;11.30;96.70;;;;;;5060632;28;20498;-76
2023/03/06 03:05:20;;;;;;;12.45;7.70;;;11.40;96.70;;;;;;5048935;28;20051;-75
2023/03/06 03:07:55;;;;;;;10.38;8.00;;;11.40;96.70;;;;;;5057691;28;20041;-75
2023/03/06 03:10:25;;;;;;;13.90;7.65;;;11.40;96.70;;;;;;5054744;28;20049;-75
2023/03/06 03:12:53;;;;;;;11.90;7.65;;;11.40;96.70;;;;;;5053806;28;20044;-74
2023/03/06 03:15:21;;;;;;;13.30;8.38;;;11.40;96.70;;;;;;5054172;28;20136;-74
2023/03/06 03:17:49;;;;;;;14.70;8.02;;;11.50;96.70;;;;;;5043594;28;20040;-75
2023/03/06 03:20:18;;;;;;;12.68;7.60;;;11.40;96.70;;;;;;5033085;28;20040;-75
2023/03/06 03:22:50;;;;;;;12.50;7.53;;;11.30;96.70;;;;;;5040308;28;20497;-75
2023/03/06 03:25:19;;;;;;;16.63;7.97;;;11.20;96.70;;;;;;5062929;28;20047;-75
2023/03/06 03:27:49;;;;;;;12.45;7.13;;;11.10;96.70;;;;;;5063158;28;20387;-75
2023/03/06 03:30:17;;;;;;;13.40;7.75;;;11.00;96.70;;;;;;5060289;28;20055;-75
2023/03/06 03:32:45;;;;;;;12.00;7.50;;;11.10;96.70;;;;;;5066989;28;20433;-75
2023/03/06 03:35:13;;;;;;;10.73;6.72;;;11.20;96.70;;;;;;5059067;28;20102;-75
2023/03/06 03:37:41;;;;;;;14.10;8.20;;;11.30;96.70;;;;;;5060263;28;20036;-75
2023/03/06 03:40:10;;;;;;;13.30;7.97;;;11.30;96.70;;;;;;5058136;28;20053;-75
2023/03/06 03:42:38;;;;;;;15.88;7.78;;;11.20;96.70;;;;;;5042355;28;20151;-75
2023/03/06 03:45:09;;;;;;;12.07;7.32;;;11.20;96.70;;;;;;5060294;28;20059;-75
2023/03/06 03:47:37;;;;;;;9.57;7.10;;;11.30;96.70;;;;;;5065634;28;20542;-75
2023/03/06 03:50:06;;;;;;;12.23;7.95;;;11.30;96.70;;;;;;5060831;28;20036;-75
2023/03/06 03:52:35;;;;;;;11.75;7.75;;;11.40;96.70;;;;;;5059968;28;20888;-75
2023/03/06 03:55:04;;;;;;;13.43;7.10;;;11.30;96.70;;;;;;5056689;28;20049;-75
2023/03/06 03:57:32;;;;;;;13.68;7.75;;;11.30;96.70;;;;;;5046566;28;20050;-75
2023/03/06 04:00:00;;;;;;;13.45;7.88;;;11.30;96.70;;;;;;5062236;28;20398;-75
2023/03/06 04:02:50;;;;;;;15.55;7.53;;;11.20;96.70;;;;;;5059660;28;20048;-76
2023/03/06 04:05:26;;;;;;;12.15;7.10;;;11.10;96.70;;;;;;5057063;28;20450;-75
2023/03/06 04:07:54;;;;;;;10.45;7.43;;;11.10;96.70;;;;;;5056709;28;20304;-75
2023/03/06 04:10:21;;;;;;;11.35;6.65;;;11.20;96.70;;;;;;5063636;28;20041;-75
2023/03/06 04:12:50;;;;;;;11.85;7.10;;;11.00;96.70;;;;;;5080942;28;20064;-76
2023/03/06 04:15:17;;;;;;;9.93;7.43;;;10.80;96.70;;;;;;5049228;28;20044;-75
2023/03/06 04:17:46;;;;;;;13.98;7.80;;;10.90;96.70;;;;;;5058806;28;20060;-76
2023/03/06 04:20:19;;;;;;;11.52;8.13;;;10.90;96.70;;;;;;5066020;28;20041;-76
2023/03/06 04:22:48;;;;;;;14.07;8.77;;;10.90;96.70;;;;;;5056247;28;20041;-75
2023/03/06 04:25:17;;;;;;;13.90;8.13;;;10.90;96.70;;;;;;5057562;28;20522;-75
2023/03/06 04:27:45;;;;;;;12.23;8.50;;;10.90;96.70;;;;;;5057330;28;20178;-76
2023/03/06 04:30:13;;;;;;;13.07;8.38;;;11.00;96.70;;;;;;5061305;28;20053;-75
2023/03/06 04:32:41;;;;;;;13.77;8.65;;;11.00;96.70;;;;;;5061471;28;20045;-75
2023/03/06 04:35:09;;;;;;;14.45;8.23;;;10.90;96.70;;;;;;5048107;28;20540;-75
2023/03/06 04:37:48;;;;;;;15.45;9.00;;;10.90;96.70;;;;;;5045500;28;20567;-75
2023/03/06 04:40:21;;;;;;;12.82;8.93;;;10.80;96.70;;;;;;5057242;28;20139;-75
2023/03/06 04:42:49;;;;;;;13.57;8.40;;;10.80;96.70;;;;;;5057910;28;20033;-76
2023/03/06 04:45:17;;;;;;;12.85;8.05;;;10.80;96.70;;;;;;5055754;28;20037;-76
2023/03/06 04:47:45;;;;;;;16.98;9.02;;;10.90;96.70;;;;;;5054556;28;20104;-75
2023/03/06 04:50:12;;;;;;;13.05;8.57;;;10.80;96.70;;;;;;5055030;28;20180;-75
2023/03/06 04:52:40;;;;;;;11.02;8.02;;;10.80;96.70;;;;;;5056208;28;20574;-76
2023/03/06 04:55:12;;;;;;;15.75;9.35;;;10.80;96.70;;;;;;5055274;28;20057;-75
2023/03/06 04:57:42;;;;;;;10.93;8.50;;;10.90;96.70;;;;;;5055227;28;20045;-75
2023/03/06 05:00:14;;;;;;;14.27;9.48;;;10.80;96.70;;;;;;5062880;28;20666;-76
2023/03/06 05:02:43;;;;;;;16.65;8.88;;;10.80;96.70;;;;;;5052286;28;20720;-77
2023/03/06 05:05:11;;;;;;;15.48;9.20;;;10.70;96.70;;;;;;5054517;28;20045;-77
2023/03/06 05:07:40;;;;;;;15.50;8.52;;;10.80;96.70;;;;;;5054452;28;20048;-77
2023/03/06 05:10:13;;;;;;;13.02;8.65;;;10.90;96.70;;;;;;5054942;28;20117;-77
2023/03/06 05:12:41;;;;;;;13.13;7.68;;;10.90;96.70;;;;;;5055675;28;20049;-76
2023/03/06 05:15:11;;;;;;;10.93;8.30;;;11.00;96.70;;;;;;5043197;28;20051;-77
2023/03/06 05:17:39;;;;;;;12.82;8.95;;;11.00;96.70;;;;;;5044488;28;20045;-77
2023/03/06 05:20:10;;;;;;;14.43;8.82;;;11.00;96.70;;;;;;5082550;28;20044;-77
2023/03/06 05:22:38;;;;;;;11.60;7.88;;;11.00;96.70;;;;;;5062934;28;20048;-78
2023/03/06 05:25:07;;;;;;;11.98;8.43;;;10.70;96.70;;;;;;5051844;28;20042;-77
2023/03/06 05:27:37;;;;;;;10.65;8.45;;;10.80;96.70;;;;;;5057334;28;20037;-77
2023/03/06 05:30:06;;;;;;;15.23;9.18;;;10.80;96.70;;;;;;5056220;28;20053;-76
2023/03/06 05:32:34;;;;;;;11.15;8.18;;;10.80;96.70;;;;;;5049061;28;20045;-77
2023/03/06 05:35:03;;;;;;;12.45;8.35;;;10.90;96.70;;;;;;5058189;28;20044;-77
2023/03/06 05:37:32;;;;;;;15.00;8.32;;;10.90;96.70;;;;;;5052429;28;20114;-76
2023/03/06 05:39:59;;;;;;;14.30;8.48;;;10.80;96.70;;;;;;5054972;28;20648;-76
2023/03/06 05:42:30;;;;;;;13.93;8.60;;;10.90;96.70;;;;;;5054114;28;20052;-76
2023/03/06 05:45:00;;;;;;;11.98;8.80;;;10.90;96.70;;;;;;5056059;28;20040;-77
2023/03/06 05:47:29;;;;;;;13.73;9.07;;;10.90;96.70;;;;;;5055650;28;20036;-77
2023/03/06 05:49:57;;;;;;;13.18;9.27;;;11.00;96.70;;;;;;5041241;28;20037;-76
2023/03/06 05:52:25;;;;;;;19.15;11.77;;;11.00;96.70;;;;;;5056793;28;20055;-76
2023/03/06 05:54:54;;;;;;;15.90;11.05;;;10.90;96.70;;;;;;5056105;28;20136;-76
2023/03/06 05:57:23;;;;;;;15.60;9.60;;;10.90;96.70;;;;;;5040839;28;20056;-76
2023/03/06 05:59:51;;;;;;;15.73;10.18;;;10.90;96.70;;;;;;5056789;28;20589;-76
2023/03/06 06:02:20;;;;;;;14.52;9.70;;;10.80;96.70;;;;;;5052929;28;20113;-76
2023/03/06 06:04:48;;;;;;;17.40;10.23;;;10.60;96.70;;;;;;5050659;28;20437;-76
2023/03/06 06:07:16;;;;;;;14.13;8.63;;;10.60;96.70;;;;;;5053475;28;20033;-76
2023/03/06 06:09:45;;;;;;;13.20;9.63;;;10.60;96.70;;;;;;5051709;28;21040;-76
2023/03/06 06:12:13;;;;;;;16.33;9.27;;;10.80;96.70;;;;;;5053746;28;20115;-76
2023/03/06 06:14:41;;;;;;;14.05;8.73;;;10.70;96.70;;;;;;5057705;28;20317;-76
2023/03/06 06:17:09;;;;;;;12.55;8.93;;;10.70;96.70;;;;;;5053708;28;20037;-77
2023/03/06 06:19:38;;;;;;;14.32;8.82;;;10.70;96.70;;;;;;5057658;28;20075;-76
2023/03/06 06:22:06;;;;;;;15.05;9.50;;;10.60;96.70;;;;;;5055438;28;20565;-76
2023/03/06 06:24:34;;;;;;;13.13;9.13;;;10.60;96.70;;;;;;5060121;28;20494;-76
2023/03/06 06:27:02;;;;;;;11.93;8.65;;;10.60;96.70;;;;;;5049564;28;20433;-76
2023/03/06 06:29:31;;;;;;;15.88;9.73;;;10.60;96.70;;;;;;5052813;28;20075;-76
2023/03/06 06:32:00;;;;;;;11.02;8.75;;;10.70;96.70;;;;;;5059460;28;20094;-76
2023/03/06 06:34:29;;;;;;;12.27;8.40;;;10.70;96.70;;;;;;5053152;28;20129;-76
2023/03/06 06:36:58;;;;;;;12.85;8.77;;;10.80;96.70;;;;;;5068025;28;20043;-76
2023/03/06 06:39:26;;;;;;;13.60;9.40;;;10.80;96.70;;;;;;5062602;28;20610;-77
2023/03/06 06:41:54;;;;;;;14.20;8.93;;;10.80;96.70;;;;;;5045652;28;20052;-76
2023/03/06 06:44:41;;;;;;;14.10;7.97;;;10.90;96.70;;;;;;5054113;28;20079;-76
2023/03/06 06:47:09;;;;;;;13.15;8.82;;;10.90;96.70;;;;;;5051115;28;20056;-77
2023/03/06 06:49:54;;;;;;;14.68;9.40;;;11.00;96.70;;;;;;5059997;28;20049;-76
2023/03/06 06:52:23;;;;;;;12.75;8.38;;;10.80;96.70;;;;;;5051883;28;20045;-77
2023/03/06 06:54:51;;;;;;;11.85;8.52;;;10.80;96.70;;;;;;5059633;28;20048;-76
2023/03/06 06:57:19;;;;;;;13.48;9.38;;;10.80;96.70;;;;;;5050778;28;20099;-76
2023/03/06 06:59:47;;;;;;;14.13;8.88;;;10.80;96.70;;;;;;5052036;28;20060;-76
2023/03/06 07:02:16;;;;;;;12.98;9.20;;;10.80;96.70;;;;;;5051052;28;20128;-76
2023/03/06 07:04:44;;;;;;;16.33;9.27;;;10.80;96.70;;;;;;5058123;28;20052;-76
2023/03/06 07:07:30;;;;;;;13.43;8.60;;;10.90;96.70;;;;;;5057831;28;20051;-77
2023/03/06 07:09:58;;;;;;;14.65;8.82;;;10.80;96.70;;;;;;5057097;28;20045;-76
2023/03/06 07:12:26;;;;;;;13.13;9.18;;;10.80;96.70;;;;;;5054981;28;20058;-76
2023/03/06 07:14:54;;;;;;;12.80;9.30;;;10.90;96.70;;;;;;5056010;28;20037;-77
2023/03/06 07:17:21;;;;;;;12.75;9.35;;;10.80;96.70;;;;;;5056021;28;20102;-76
2023/03/06 07:19:49;;;;;;;12.45;7.63;;;10.90;96.70;;;;;;5057225;28;20060;-76
2023/03/06 07:22:17;;;;;;;11.48;8.93;;;10.90;96.70;;;;;;5049970;28;20118;-76
2023/03/06 07:24:46;;;;;;;13.23;9.02;;;10.80;96.70;;;;;;5047781;28;20128;-76
2023/03/06 07:27:14;;;;;;;13.70;8.23;;;10.90;96.70;;;;;;5054173;28;20827;-76
2023/03/06 07:29:42;;;;;;;12.85;8.38;;;10.90;96.70;;;;;;5048998;28;20081;-76
2023/03/06 07:32:10;;;;;;;12.73;8.07;;;11.00;96.70;;;;;;5054794;28;20055;-76
2023/03/06 07:34:38;;;;;;;12.80;7.85;;;11.00;96.70;;;;;;5058381;28;20083;-76
2023/03/06 07:37:05;;;;;;;11.77;8.15;;;11.00;96.70;;;;;;5038253;28;20044;-76
2023/03/06 07:39:33;;;;;;;13.02;8.45;;;11.00;96.70;;;;;;5054421;28;20086;-77
2023/03/06 07:42:03;;;;;;;11.88;7.82;;;11.10;96.70;;;;;;5054074;28;20049;-76
2023/03/06 07:44:34;;;;;;;11.85;7.40;;;11.00;96.70;;;;;;5054704;28;20545;-76
2023/03/06 07:47:02;;;;;;;13.43;9.02;;;11.10;96.70;;;;;;5048616;28;20098;-76
2023/03/06 07:49:30;;;;;;;13.32;8.65;;;11.20;96.70;;;;;;5051725;28;20044;-76
2023/03/06 07:51:59;;;;;;;13.32;8.10;;;11.20;96.70;;;;;;5049740;28;20554;-76
2023/03/06 07:54:29;;;;;;;11.90;7.72;;;11.20;96.70;;;;;;5041248;28;20068;-76
2023/03/06 07:56:57;;;;;;;11.82;7.85;;;11.20;96.70;;;;;;5052783;28;20495;-76
2023/03/06 07:59:26;;;;;;;9.90;7.45;;;11.20;96.70;;;;;;5047536;28;20122;-75
2023/03/06 08:01:54;;;;;;;14.50;8.73;;;11.10;96.70;;;;;;5053362;28;20087;-76
2023/03/06 08:04:22;;;;;;;13.20;8.63;;;11.10;96.70;;;;;;5054161;28;20051;-78
2023/03/06 08:06:52;;;;;;;14.77;8.73;;;11.10;96.70;;;;;;5044132;28;20098;-80
2023/03/06 08:09:20;;;;;;;17.52;9.23;;;11.10;96.70;;;;;;5057587;28;20033;-76
2023/03/06 08:11:47;;;;;;;16.73;9.07;;;11.10;96.70;;;;;;5068566;28;20044;-76
2023/03/06 08:14:15;;;;;;;15.70;8.90;;;11.20;96.70;;;;;;5062486;28;20087;-76
2023/03/06 08:16:44;;;;;;;19.08;9.20;;;11.20;96.70;;;;;;5072600;28;20045;-78
2023/03/06 08:19:12;;;;;;;17.30;10.18;;;11.20;96.70;;;;;;5079410;28;20050;-77
2023/03/06 08:21:39;;;;;;;16.35;9.65;;;11.20;96.70;;;;;;5064608;28;20139;-78
2023/03/06 08:24:08;;;;;;;19.48;10.60;;;11.10;96.70;;;;;;5068469;28;20040;-79
2023/03/06 08:26:35;;;;;;;16.67;9.57;;;11.00;96.70;;;;;;5067639;28;20043;-76
2023/03/06 08:29:03;;;;;;;16.60;8.77;;;11.00;96.70;;;;;;5074538;28;20052;-79
2023/03/06 08:31:33;;;;;;;16.45;8.80;;;11.00;96.70;;;;;;5058335;28;20041;-78
2023/03/06 08:34:05;;;;;;;13.52;8.65;;;11.10;96.70;;;;;;5071283;28;20670;-79
2023/03/06 08:36:32;;;;;;;14.48;8.98;;;11.10;96.70;;;;;;5070871;28;20379;-77
2023/03/06 08:39:01;;;;;;;12.82;8.43;;;11.10;96.70;;;;;;5066219;28;20363;-79
2023/03/06 08:41:29;;;;;;;16.30;8.85;;;11.20;96.70;;;;;;5060257;28;20048;-78
2023/03/06 08:43:56;;;;;;;15.63;8.75;;;11.20;96.70;;;;;;5059969;28;20094;-77
2023/03/06 08:46:26;;;;;;;17.63;8.93;;;11.20;96.70;;;;;;5068438;28;20041;-77
2023/03/06 08:48:54;;;;;;;15.18;9.63;;;11.20;96.70;;;;;;5080834;28;20043;-77
2023/03/06 08:51:24;;;;;;;17.25;8.88;;;11.20;96.70;;;;;;5066954;28;20044;-77
2023/03/06 08:53:52;;;;;;;12.98;8.40;;;11.20;96.70;;;;;;5073578;28;20141;-76
2023/03/06 08:56:21;;;;;;;12.43;7.97;;;11.20;96.70;;;;;;5063368;28;20064;-77
2023/03/06 08:58:49;;;;;;;13.10;8.57;;;11.30;96.70;;;;;;5077018;28;20064;-77
2023/03/06 09:01:19;;;;;;;15.45;8.95;;;11.40;96.70;;;;;;5067583;28;20033;-77
2023/03/06 09:03:48;;;;;;;14.63;8.98;;;11.50;96.70;;;;;;5069931;28;20048;-78
2023/03/06 09:06:29;;;;;;;13.35;8.70;;;11.50;96.70;;;;;;5076053;28;20047;-78
2023/03/06 09:08:58;;;;;;;14.02;9.00;;;11.60;96.70;;;;;;5072404;28;20528;-79
2023/03/06 09:11:28;;;;;;;14.35;9.15;;;11.70;96.70;;;;;;5076737;28;20059;-80
2023/03/06 09:13:56;;;;;;;16.05;9.35;;;11.70;96.70;;;;;;5047103;28;20058;-82
2023/03/06 09:16:24;;;;;;;12.00;7.88;;;11.80;96.70;;;;;;5076536;28;20167;-80
2023/03/06 09:18:53;;;;;;;13.07;8.35;;;11.80;96.70;;;;;;5068176;28;20075;-80
2023/03/06 09:21:22;;;;;;;14.43;8.43;;;11.70;96.70;;;;;;5068571;28;20505;-83
2023/03/06 09:23:51;;;;;;;12.80;8.35;;;11.70;96.70;;;;;;5066934;28;20053;-82
2023/03/06 09:26:19;;;;;;;17.40;8.38;;;11.70;96.70;;;;;;5067484;28;20094;-81
2023/03/06 09:28:47;;;;;;;12.68;8.32;;;11.70;96.70;;;;;;5066631;28;20047;-80
2023/03/06 09:31:17;;;;;;;14.18;8.88;;;11.70;96.70;;;;;;5066646;28;20071;-81
2023/03/06 09:33:47;;;;;;;12.40;8.70;;;11.70;96.70;;;;;;5082756;28;20048;-81
2023/03/06 09:36:17;;;;;;;14.90;8.55;;;11.70;96.70;;;;;;5058603;28;20043;-82
2023/03/06 09:38:47;;;;;;;14.15;8.23;;;11.70;96.70;;;;;;5049199;28;20462;-80
2023/03/06 09:41:27;;;;;;;13.05;8.68;;;11.80;96.70;;;;;;5067704;28;20053;-85
2023/03/06 09:44:03;;;;;;;11.43;7.88;;;11.70;96.70;;;;;;5068320;28;20048;-81
2023/03/06 09:46:39;;;;;;;;;;;11.70;96.70;;;;;;5065930;28;20661;-80
2023/03/06 09:49:24;;;;;;;13.35;7.97;;;11.70;96.70;;;;;;5071224;28;20457;-81
2023/03/06 09:52:02;;;;;;;13.10;8.65;;;11.60;96.70;;;;;;5067747;28;20040;-80
2023/03/06 09:54:41;;;;;;;16.65;9.68;;;11.60;96.70;;;;;;5047974;28;20563;-81
2023/03/06 09:57:18;;;;;;;16.75;9.50;;;11.50;96.70;;;;;;5066636;28;20048;-81
2023/03/06 09:59:50;;;;;;;11.27;8.80;;;11.50;96.70;;;;;;5060010;28;20080;-81
2023/03/06 10:02:25;;;;;;;11.93;7.57;;;11.60;96.70;;;;;;5070193;28;20052;-81
2023/03/06 10:04:59;;;;;;;10.20;7.07;;;11.50;96.70;;;;;;5061711;28;20211;-80
2023/03/06 10:07:35;;;;;;;9.23;6.85;;;11.50;96.70;;;;;;5065523;28;20071;-82
2023/03/06 10:10:05;;;;;;;9.10;5.93;;;11.50;96.70;;;;;;5071174;28;20469;-80
2023/03/06 10:12:41;;;;;;;8.32;5.38;;;11.50;96.70;;;;;;5077907;28;20064;-80
2023/03/06 10:15:15;;;;;;;7.43;4.90;;;11.40;96.70;;;;;;5075038;28;20505;-80
2023/03/06 10:17:43;;;;;;;6.35;4.68;;;11.40;96.70;;;;;;5074503;28;20044;-80
2023/03/06 10:20:17;;;;;;;7.65;5.28;;;11.60;96.70;;;;;;5067413;28;20464;-80
2023/03/06 10:23:00;;;;;;;6.88;5.40;;;11.60;96.70;;;;;;5057698;28;20047;-80
2023/03/06 10:25:37;;;;;;;6.20;3.97;;;11.60;96.70;;;;;;5065333;28;20041;-79
2023/03/06 10:28:29;;;;;;;7.25;4.07;;;11.60;96.70;;;;;;5075338;28;20061;-81
2023/03/06 10:31:02;;;;;;;7.47;4.80;;;11.70;96.70;;;;;;5074362;28;20570;-81
2023/03/06 10:33:46;;;;;;;8.13;4.07;;;11.60;96.70;;;;;;5060626;28;20564;-81
2023/03/06 10:36:16;;;;;;;6.28;4.35;;;11.60;96.70;;;;;;5062831;28;20052;-81
2023/03/06 10:38:47;;;;;;;6.28;4.40;;;11.60;96.70;;;;;;5068152;28;20070;-82
2023/03/06 10:41:28;;;;;;;6.57;4.18;;;11.60;96.70;;;;;;5070658;28;20056;-81
2023/03/06 10:44:23;;;;;;;6.43;4.18;;;11.70;96.70;;;;;;5066110;28;20048;-80
2023/03/06 10:46:53;;;;;;;5.90;3.67;;;11.70;96.70;;;;;;5073676;28;20047;-81
2023/03/06 10:49:31;;;;;;;5.25;4.00;;;11.70;96.70;;;;;;5066797;28;20506;-80
2023/03/06 10:52:04;;;;;;;5.55;4.00;;;11.70;96.70;;;;;;5063815;28;20052;-79
2023/03/06 10:54:35;;;;;;;8.05;4.38;;;11.80;96.70;;;;;;5078960;28;20584;-81
2023/03/06 10:57:26;;;;;;;6.45;4.03;;;11.90;96.70;;;;;;5066364;28;20801;-77
2023/03/06 10:59:58;;;;;;;7.20;4.93;;;12.00;96.70;;;;;;5064607;28;20041;-76
2023/03/06 11:02:29;;;;;;;7.82;6.20;;;12.00;96.70;;;;;;5067168;28;20129;-76
2023/03/06 11:04:59;;;;;;;5.07;4.00;;;12.00;96.70;;;;;;5076888;28;20398;-76
2023/03/06 11:07:29;;;;;;;9.65;5.00;;;12.00;96.70;;;;;;5075201;28;20044;-75
2023/03/06 11:10:15;;;;;;;12.43;7.63;;;12.00;96.70;;;;;;5072315;28;20876;-77
2023/03/06 11:12:56;;;;;;;5.23;4.17;;;12.00;96.70;;;;;;5062004;28;20067;-78
2023/03/06 11:15:27;;;;;;;6.05;4.85;;;12.00;96.70;;;;;;5074278;28;20048;-79
2023/03/06 11:18:03;;;;;;;5.15;4.55;;;11.90;96.70;;;;;;5063714;28;20070;-78
2023/03/06 11:20:34;;;;;;;5.90;4.03;;;11.80;96.70;;;;;;5059451;28;20044;-79
2023/03/06 11:23:20;;;;;;;7.30;6.25;;;11.80;96.70;;;;;;5050374;28;20099;-76
2023/03/06 11:25:52;;;;;;;9.27;5.13;;;11.80;96.70;;;;;;5068773;28;20097;-77
2023/03/06 11:28:24;;;;;;;5.15;4.10;;;11.60;96.70;;;;;;5073640;28;20790;-78
2023/03/06 11:30:59;;;;;;;5.18;4.60;;;11.60;96.70;;;;;;5081126;28;20059;-77
2023/03/06 11:33:34;;;;;;;9.07;5.60;;;11.60;96.70;;;;;;5054690;28;20064;-77
2023/03/06 11:36:11;;;;;;;6.32;5.13;;;11.60;96.70;;;;;;5064936;28;20044;-77
2023/03/06 11:38:45;;;;;;;10.32;6.78;;;11.60;96.70;;;;;;5068393;28;20052;-78
2023/03/06 11:41:21;;;;;;;5.68;3.95;;;11.60;96.70;;;;;;5081226;28;20040;-78
2023/03/06 11:43:56;;;;;;;5.18;4.30;;;11.60;96.70;;;;;;5070841;28;20048;-77
2023/03/06 11:46:32;;;;;;;6.25;3.67;;;11.80;96.70;;;;;;5086452;28;20425;-77
2023/03/06 11:49:12;;;;;;;8.17;5.33;;;12.10;96.70;;;;;;5076369;28;20044;-77
2023/03/06 11:51:47;;;;;;;6.03;3.30;;;12.50;96.70;;;;;;5083774;28;20700;-77
2023/03/06 11:54:15;;;;;;;5.50;3.80;;;12.90;96.70;;;;;;5075716;28;20055;-77
2023/03/06 11:56:51;;;;;;;6.93;3.67;;;13.30;96.70;;;;;;5085113;28;20091;-77
2023/03/06 11:59:44;;;;;;;6.53;4.13;;;13.40;96.70;;;;;;5086323;28;20493;-77
2023/03/06 12:02:24;;;;;;;6.55;4.28;;;13.60;96.70;;;;;;5075465;28;20075;-77
2023/03/06 12:05:00;;;;;;;5.18;4.35;;;14.00;96.70;;;;;;5069364;28;20075;-77
2023/03/06 12:07:31;;;;;;;4.82;3.97;;;14.10;96.70;;;;;;5076187;28;20102;-77
2023/03/06 12:10:12;;;;;;;6.95;3.55;;;14.20;96.70;;;;;;5064758;28;20409;-77
2023/03/06 12:13:17;;;;;;;6.88;4.57;;;14.30;96.70;;;;;;5075395;28;20518;-77
2023/03/06 12:16:11;;;;;;;5.18;4.35;;;14.60;96.70;;;;;;5075260;28;20101;-77
2023/03/06 12:18:51;;;;;;;7.50;4.63;;;14.60;96.70;;;;;;5085715;28;20094;-77
2023/03/06 12:21:30;;;;;;;6.88;5.10;;;14.50;96.70;;;;;;5085856;28;20234;-76
2023/03/06 12:24:09;;;;;;;7.18;5.57;;;14.40;96.70;;;;;;5061446;28;20055;-77
2023/03/06 12:26:50;;;;;;;7.20;4.93;;;14.20;96.70;;;;;;5074012;28;20471;-77
2023/03/06 12:29:35;;;;;;;7.93;4.50;;;14.00;96.70;;;;;;5082737;28;20501;-77
2023/03/06 12:32:17;;;;;;;6.47;4.85;;;13.80;96.70;;;;;;5070817;28;20067;-77
2023/03/06 12:35:04;;;;;;;6.30;4.63;;;13.70;96.70;;;;;;5085221;28;20055;-77
2023/03/06 12:37:56;;;;;;;5.68;3.85;;;13.60;96.70;;;;;;5077148;28;20102;-78
2023/03/06 12:40:50;;;;;;;4.18;3.55;;;13.20;96.70;;;;;;5065061;28;20566;-77
2023/03/06 12:43:52;;;;;;;5.05;3.50;;;12.90;96.70;;;;;;5073521;28;20060;-79
2023/03/06 12:46:22;;;;;;;5.00;3.55;;;12.70;96.70;;;;;;5079991;28;20047;-77
2023/03/06 12:49:02;;;;;;;5.13;3.55;;;12.50;96.70;;;;;;5083673;28;20394;-77
2023/03/06 12:51:33;;;;;;;4.40;3.80;;;12.40;96.70;;;;;;5066144;28;20039;-77
2023/03/06 12:54:02;;;;;;;6.47;4.68;;;12.50;96.70;;;;;;5076094;28;20052;-77
2023/03/06 12:56:32;;;;;;;6.18;3.95;;;12.60;96.70;;;;;;5066206;28;20040;-78
2023/03/06 12:59:01;;;;;;;5.18;3.60;;;12.60;96.70;;;;;;5083692;28;20097;-78